AirNav   Pilot Hours Calculator
 
 507 users online  

04WI Dutch Gap Airstrip
Bristol, Wisconsin, USA

GOING TO BRISTOL?


FAA INFORMATION EFFECTIVE 26 JANUARY 2023

Location

FAA Identifier: 04WI
Lat/Long: 42-31-24.0690N 088-01-00.2930W
42-31.401150N 088-01.004883W
42.5233525,-88.0167481
(estimated)
Elevation: 760 ft. / 232 m (estimated)
Variation: 01W (1985)
From city: 3 miles SE of BRISTOL, WI
Time zone: UTC -6 (UTC -5 during Daylight Saving Time)
Zip code: 53104

Airport Operations

Airport use: Private use. Permission required prior to landing
Activation date: 07/1978
Control tower: no
ARTCC: CHICAGO CENTER
FSS: GREEN BAY FLIGHT SERVICE STATION
Attendance: UNATNDD
Wind indicator: yes
Segmented circle: no

Airport Communications

WX ASOS at ENW (6 nm NE): PHONE 262-652-7730
WX ASOS at UGN (9 nm SE): PHONE 847-782-0876
WX AWOS-3 at BUU (16 nm NW): 125.275 (262-757-0907)
WX ASOS at RAC (17 nm NE): 121.425 (262-635-0959)

Nearby radio navigation aids

VOR radial/distance  VOR name  Freq  Var
OBKr353/18.3NORTHBROOK VOR/DME113.0002W
BAEr160/37.5BADGER VOR/DME116.4002E

 
NDB name  Hdg/Dist  Freq  Var  ID
WAUKE294/10.237903WUG ..- --.

Airport Services

Runway Information

Runway 9/27

Dimensions: 1800 x 100 ft. / 549 x 30 m
Surface: turf
RUNWAY 9  RUNWAY 27
Traffic pattern: leftleft

Airport Ownership and Management from official FAA records

Ownership: Privately-owned
Owner: GARY ZIEGLER
17206 WINFIELD RD
BRISTOL, WI 53104
Phone 414-857-6801
Manager: GARY ZIEGLER
17206 WINFIELD ROAD
BRISTOL, WI 53104
Phone 414-857-6801

Airport Operational Statistics

Aircraft based on the field: 2
Single engine airplanes: 2
    

Additional Remarks

FOR CD CTC CHICAGO ARTCC AT 630-906-8921.

Instrument Procedures

There are no published instrument procedures at 04WI.

Some nearby airports with instrument procedures:

KENW - Kenosha Regional Airport (6 nm NE)
KUGN - Waukegan National Airport (9 nm SE)
C81 - Campbell Airport (12 nm S)
KBUU - Burlington Municipal Airport (16 nm NW)
KRAC - Batten International Airport (17 nm NE)
C02 - Grand Geneva Resort Airport (17 nm W)
10C - Galt Field Airport (17 nm SW)
 
Loc | Ops | Rwys | IFR | FBO | Links
Com | Nav | Svcs | Stats | Notes
Area around 04WI (Dutch Gap Airstrip)
 
Road maps at: MapQuest Bing Google
 
Aerial photo
No photo
 
Sectional chart

 
Airport distance calculator
Flying to Dutch Gap Airstrip? Find the distance to fly.

From to 04WI

Sunrise and sunset
Times for 09-Feb-2023
 Local
(UTC-6)
 Zulu
(UTC)
Morning civil twilight06:2912:29
Sunrise06:5812:58
Sunset17:1523:15
Evening civil twilight17:4423:44

Current date and time
Zulu (UTC)  09-Feb-2023 10:10:33
Local (UTC-6)  09-Feb-2023 04:10:33
 
METAR
KENW 
6nm NE 
090953Z AUTO 03007KT 3SM BR BKN029 BKN033 OVC080 03/02 A2979 RMK AO2 RAE0858 SLP094 P0001 T00330017
KUGN 
9nm SE 
090951Z AUTO 07008KT 4SM BR FEW042 OVC050 03/02 A2978 RMK AO2 SLP092 T00280017 $
KBUU 
16nm NW 
090955Z AUTO 03008KT 4SM OVC030 02/01 A2980 RMK AO2 T00150008 PWINO
KRAC 
17nm NE 
090953Z AUTO 03007KT 4SM BR OVC030 03/01 A2982 RMK AO2 RAE10 PRESFR SLP103 P0000 T00330011
TAF
KENW 
6nm NE 
090540Z 0906/1006 10004KT 5SM BR OVC110 FM090900 07007KT 5SM -RA BR OVC035 FM091100 06013KT 4SM RA BR OVC008 FM091400 05017G28KT 1SM RA BR OVC004 FM092100 32017G30KT 2SM -RA BR OVC006 FM100000 30018G31KT P6SM OVC010
NOTAMs
Click for the latest NOTAMs
NOTAMs are issued by the DoD/FAA and will open in a separate window not controlled by AirNav.

 

 
 

Would you like to see your business listed on this page?

 If your business provides an interesting product or service to pilots, flight crews, aircraft, or users of the Dutch Gap Airstrip, you should consider listing it here.  To start the listing process, click on the button below
 
Add a business
 

Other Pages about Dutch Gap Airstrip

Update a link
 
Copyright © AirNav, LLC. All rights reserved. Privacy Policy  Contact